Time;durP1;ratioP1;P1;durP2;ratioP2;P2;SDS_P1;SDS_P2;PMS_P1;PMS_P2;Temp;Humidity;BMP_temperature;BMP_pressure;BME280_temperature;BME280_humidity;BME280_pressure;Samples;Min_cycle;Max_cycle;Signal;HPM_P1;HPM_P2
2021/10/21 00:01:55;;;;;;;2.25;0.95;;;20.80;41.60;21.20;92824.00;;;;10432902;28;45664;-61
2021/10/21 00:06:55;;;;;;;1.15;0.80;;;20.80;41.60;21.20;92823.00;;;;10431609;28;46470;-62
2021/10/21 00:11:56;;;;;;;1.33;0.98;;;20.90;41.60;21.20;92821.00;;;;10432396;28;45204;-61
2021/10/21 00:16:57;;;;;;;1.60;1.05;;;20.80;41.60;21.10;92812.00;;;;10432105;28;45198;-63
2021/10/21 00:21:58;;;;;;;1.75;0.93;;;20.80;41.60;21.20;92794.00;;;;10438310;28;45222;-65
2021/10/21 00:26:59;;;;;;;1.88;1.00;;;20.80;41.60;21.10;92794.00;;;;10420887;28;48323;-64
2021/10/21 00:31:59;;;;;;;1.15;0.82;;;20.80;41.60;21.10;92765.00;;;;10439153;28;45265;-62
2021/10/21 00:37:00;;;;;;;1.20;0.90;;;20.80;41.60;21.10;92788.00;;;;10437786;28;46468;-61
2021/10/21 00:42:02;;;;;;;1.10;0.70;;;20.80;41.60;21.10;92796.00;;;;10439014;28;45388;-61
2021/10/21 00:47:04;;;;;;;2.38;0.90;;;20.80;41.60;21.10;92778.00;;;;10437136;28;45823;-61
2021/10/21 00:52:06;;;;;;;1.40;0.93;;;20.80;41.60;21.10;92757.00;;;;10438522;28;46073;-61
2021/10/21 00:57:12;;;;;;;1.10;0.80;;;20.80;41.60;21.10;92765.00;;;;10453619;28;47390;-61
2021/10/21 01:02:13;;;;;;;1.20;0.93;;;20.80;41.60;21.10;92779.00;;;;10431840;28;45467;-61
2021/10/21 01:07:14;;;;;;;1.58;0.82;;;20.80;41.60;21.10;92767.00;;;;10435113;28;45391;-62
2021/10/21 01:12:15;;;;;;;1.35;0.80;;;20.80;41.60;21.10;92759.00;;;;10436531;28;45200;-61
2021/10/21 01:17:16;;;;;;;1.17;0.90;;;20.80;41.60;21.10;92749.00;;;;10438128;28;46070;-63
2021/10/21 01:22:17;;;;;;;2.67;0.80;;;20.80;41.60;21.10;92754.00;;;;10437452;28;46005;-61
2021/10/21 01:27:17;;;;;;;1.67;1.02;;;20.80;41.60;21.10;92773.00;;;;10435165;28;45296;-61
2021/10/21 01:32:26;;;;;;;1.10;1.00;;;20.80;41.60;21.10;92767.00;;;;10435414;28;46614;-63
2021/10/21 01:37:27;;;;;;;1.50;1.10;;;20.80;41.60;21.00;92758.00;;;;10434092;28;47176;-61
2021/10/21 01:42:28;;;;;;;1.10;0.88;;;20.70;41.60;21.00;92757.00;;;;10435948;28;45482;-60
2021/10/21 01:47:28;;;;;;;1.05;0.80;;;20.80;41.60;21.00;92747.00;;;;10454918;28;46967;-65
2021/10/21 01:52:29;;;;;;;1.67;0.82;;;20.70;41.60;21.00;92777.00;;;;10476011;28;45480;-61
2021/10/21 01:57:29;;;;;;;1.83;1.00;;;20.70;41.60;21.00;92804.00;;;;10475435;28;46780;-60
2021/10/21 02:02:31;;;;;;;1.70;0.90;;;20.70;41.70;21.00;92799.00;;;;10476493;28;45653;-61
2021/10/21 02:07:32;;;;;;;0.98;0.73;;;20.70;41.70;21.00;92780.00;;;;10451003;28;45182;-61
2021/10/21 02:12:33;;;;;;;1.30;0.90;;;20.70;41.70;21.00;92774.00;;;;10433478;28;45241;-62
2021/10/21 02:17:34;;;;;;;1.58;0.98;;;20.70;41.70;21.00;92772.00;;;;10434192;28;45306;-61
2021/10/21 02:22:36;;;;;;;1.52;0.80;;;20.70;41.80;21.00;92807.00;;;;10433208;28;46656;-61
2021/10/21 02:27:38;;;;;;;0.90;0.80;;;20.70;41.80;21.00;92810.00;;;;10415837;28;47805;-60
2021/10/21 02:32:40;;;;;;;1.20;0.82;;;20.70;41.90;21.00;92822.00;;;;10416144;28;48259;-62
2021/10/21 02:37:41;;;;;;;0.80;0.73;;;20.70;41.90;20.90;92804.00;;;;10432620;28;45369;-62
2021/10/21 02:42:41;;;;;;;1.10;0.90;;;20.70;41.90;20.90;92788.00;;;;10433832;28;45312;-62
2021/10/21 02:47:44;;;;;;;1.00;0.80;;;20.70;41.90;20.90;92780.00;;;;10438978;28;46531;-61
2021/10/21 02:52:45;;;;;;;0.60;0.60;;;20.60;42.00;20.90;92780.00;;;;10475871;28;46389;-61
2021/10/21 02:57:45;;;;;;;1.23;0.82;;;20.60;41.90;20.90;92801.00;;;;10473772;28;46184;-61
2021/10/21 03:02:46;;;;;;;1.00;0.80;;;20.60;42.10;20.90;92797.00;;;;10475277;28;46341;-61
2021/10/21 03:07:47;;;;;;;1.10;0.90;;;20.60;42.00;20.90;92804.00;;;;10447029;28;45512;-61
2021/10/21 03:12:47;;;;;;;0.98;0.80;;;20.60;42.10;20.90;92818.00;;;;10432858;28;45367;-63
2021/10/21 03:17:48;;;;;;;1.13;0.85;;;20.60;42.00;20.90;92817.00;;;;10414387;28;47159;-62
2021/10/21 03:22:49;;;;;;;1.00;0.60;;;20.60;42.10;20.90;92812.00;;;;10433104;28;46278;-62
2021/10/21 03:27:49;;;;;;;1.42;0.80;;;20.60;42.20;20.90;92833.00;;;;10432220;28;46588;-62
2021/10/21 03:32:50;;;;;;;0.90;0.80;;;20.60;42.20;20.90;92874.00;;;;10432504;28;46147;-61
2021/10/21 03:37:51;;;;;;;1.02;0.73;;;20.60;42.20;20.90;92871.00;;;;10431028;28;45374;-61
2021/10/21 03:42:52;;;;;;;1.35;0.60;;;20.60;42.20;20.80;92897.00;;;;10414537;28;46936;-62
2021/10/21 03:47:52;;;;;;;0.95;0.70;;;20.60;42.10;20.80;92928.00;;;;10437892;28;45593;-61
2021/10/21 03:52:53;;;;;;;0.70;0.60;;;20.60;42.20;20.90;92956.00;;;;10491823;28;48555;-61
2021/10/21 03:57:54;;;;;;;1.05;0.60;;;20.60;42.20;20.90;92987.00;;;;10479518;28;46506;-61
2021/10/21 04:02:54;;;;;;;0.80;0.70;;;20.60;42.20;20.80;93017.00;;;;10462813;28;48098;-61
2021/10/21 04:07:55;;;;;;;0.73;0.60;;;20.60;42.20;20.80;93016.00;;;;10451935;28;45191;-62
2021/10/21 04:12:56;;;;;;;0.65;0.50;;;20.50;42.20;20.90;93047.00;;;;10438939;28;45585;-61
2021/10/21 04:17:57;;;;;;;0.63;0.60;;;20.60;42.50;21.00;93045.00;;;;10453825;28;46445;-62
2021/10/21 04:22:58;;;;;;;1.80;0.68;;;20.60;42.40;21.00;93041.00;;;;10437616;28;45720;-61
2021/10/21 04:27:58;;;;;;;0.73;0.60;;;20.60;42.20;21.10;93058.00;;;;10437549;28;45341;-62
2021/10/21 04:32:59;;;;;;;1.80;0.63;;;20.70;42.20;21.10;93041.00;;;;10436933;28;45219;-61
2021/10/21 04:37:59;;;;;;;1.63;0.60;;;20.70;42.10;21.10;93057.00;;;;10419583;28;47560;-62
2021/10/21 04:43:00;;;;;;;1.00;0.52;;;20.80;42.00;21.20;93071.00;;;;10419702;28;48238;-61
2021/10/21 04:48:01;;;;;;;1.13;0.50;;;20.80;41.90;21.20;93097.00;;;;10445808;28;46718;-61
2021/10/21 04:53:04;;;;;;;0.50;0.50;;;20.80;41.90;21.20;93121.00;;;;10478213;28;46385;-61
2021/10/21 04:58:05;;;;;;;0.60;0.40;;;20.80;41.80;21.20;93126.00;;;;10494085;28;45240;-61
2021/10/21 05:03:12;;;;;;;0.80;0.45;;;20.90;41.80;21.30;93129.00;;;;10477385;28;46335;-62
2021/10/21 05:08:12;;;;;;;0.60;0.35;;;20.90;41.70;21.30;93151.00;;;;10447437;28;45446;-61
2021/10/21 05:13:13;;;;;;;0.77;0.50;;;20.90;41.70;21.30;93139.00;;;;10435709;28;45651;-62
2021/10/21 05:18:15;;;;;;;0.65;0.40;;;20.90;41.50;21.30;93142.00;;;;10436493;28;45264;-61
2021/10/21 05:23:16;;;;;;;0.80;0.40;;;20.90;41.50;21.30;93161.00;;;;10435114;28;46243;-62
2021/10/21 05:28:17;;;;;;;0.90;0.40;;;21.00;41.50;21.40;93174.00;;;;10435010;28;45287;-62
2021/10/21 05:33:18;;;;;;;1.55;0.40;;;21.00;41.40;21.40;93190.00;;;;10434466;28;45222;-61
2021/10/21 05:38:18;;;;;;;1.08;0.50;;;21.00;41.40;21.40;93199.00;;;;10417698;28;46863;-61
2021/10/21 05:43:22;;;;;;;1.05;0.45;;;21.00;41.30;21.40;93182.00;;;;10435949;28;45282;-61
2021/10/21 05:48:22;;;;;;;2.05;0.50;;;21.00;41.20;21.40;93213.00;;;;10429380;28;48000;-61
2021/10/21 05:53:23;;;;;;;0.80;0.60;;;21.00;41.20;21.40;93242.00;;;;10475964;28;45625;-61
2021/10/21 05:58:23;;;;;;;0.50;0.30;;;21.10;41.20;21.40;93242.00;;;;10475630;28;45219;-61
2021/10/21 06:03:26;;;;;;;0.70;0.40;;;21.10;41.20;21.40;93241.00;;;;10475862;28;45389;-62
2021/10/21 06:08:26;;;;;;;0.82;0.40;;;21.10;41.20;21.40;93254.00;;;;10443282;28;45244;-61
2021/10/21 06:13:27;;;;;;;0.98;0.40;;;21.10;41.10;21.40;93274.00;;;;10433872;28;45447;-61
2021/10/21 06:18:28;;;;;;;1.48;0.55;;;21.10;41.00;21.40;93288.00;;;;10435122;28;45321;-64
2021/10/21 06:23:29;;;;;;;0.90;0.43;;;21.10;41.00;21.40;93317.00;;;;10435891;28;46307;-61
2021/10/21 06:28:29;;;;;;;1.38;0.43;;;21.10;41.00;21.40;93318.00;;;;10432619;28;45228;-61
2021/10/21 06:33:30;;;;;;;0.75;0.45;;;21.10;41.00;21.50;93335.00;;;;10415956;28;47941;-62
2021/10/21 06:38:31;;;;;;;0.90;0.50;;;21.10;40.90;21.50;93341.00;;;;10432669;28;45575;-61
2021/10/21 06:43:33;;;;;;;1.40;0.40;;;21.10;40.90;21.50;93364.00;;;;10433497;28;45311;-61
2021/10/21 06:48:33;;;;;;;0.80;0.40;;;21.10;40.90;21.50;93351.00;;;;10445447;28;45327;-61
2021/10/21 06:53:34;;;;;;;1.00;0.30;;;21.10;40.80;21.50;93367.00;;;;10476098;28;45511;-61
2021/10/21 06:58:35;;;;;;;0.98;0.50;;;21.10;40.80;21.50;93384.00;;;;10475266;28;46278;-61
2021/10/21 07:03:35;;;;;;;1.50;0.40;;;21.10;40.80;21.50;93398.00;;;;10475815;28;46906;-61
2021/10/21 07:08:36;;;;;;;0.90;0.50;;;21.20;40.80;21.50;93422.00;;;;10439836;28;45326;-61
2021/10/21 07:13:37;;;;;;;1.17;0.38;;;21.20;40.70;21.50;93447.00;;;;10429317;28;46205;-62
2021/10/21 07:18:38;;;;;;;0.65;0.30;;;21.20;40.70;21.50;93452.00;;;;10431952;28;45437;-61
2021/10/21 07:23:39;;;;;;;1.15;0.40;;;21.20;40.70;21.50;93480.00;;;;10438628;22;46286;-65
2021/10/21 07:28:39;;;;;;;1.33;0.40;;;21.20;40.60;21.50;93495.00;;;;10417798;28;47325;-65
2021/10/21 07:33:40;;;;;;;1.70;0.30;;;21.20;40.60;21.40;93509.00;;;;10416175;28;45288;-64
2021/10/21 07:38:41;;;;;;;2.38;0.40;;;21.10;40.30;21.40;93509.00;;;;10397453;28;48584;-64
2021/10/21 07:43:41;;;;;;;1.80;0.57;;;21.10;40.30;21.40;93503.00;;;;10397849;28;45132;-64
2021/10/21 07:48:42;;;;;;;2.38;0.40;;;21.10;40.30;21.40;93504.00;;;;10411275;28;47230;-64
2021/10/21 07:53:43;;;;;;;2.20;0.40;;;21.10;40.00;21.40;93530.00;;;;10439246;28;45302;-63
2021/10/21 07:58:43;;;;;;;2.30;0.40;;;21.10;40.20;21.40;93546.00;;;;10439448;28;45568;-64
2021/10/21 08:03:44;;;;;;;2.95;0.50;;;21.10;40.10;21.40;93538.00;;;;10438001;28;47269;-64
2021/10/21 08:08:45;;;;;;;0.98;0.30;;;21.10;40.00;21.40;93535.00;;;;10422438;28;47905;-62
2021/10/21 08:13:45;;;;;;;0.95;0.30;;;21.10;39.70;21.40;93538.00;;;;10438665;28;48124;-63
2021/10/21 08:18:46;;;;;;;2.40;0.38;;;21.10;39.90;21.40;93532.00;;;;10439770;28;46341;-67
2021/10/21 08:23:50;;;;;;;2.10;0.45;;;21.10;39.90;21.40;93566.00;;;;10438917;28;45575;-63
2021/10/21 08:28:57;;;;;;;0.80;0.20;;;21.10;39.60;21.40;93567.00;;;;10439773;28;45318;-63
2021/10/21 08:33:58;;;;;;;2.03;0.40;;;21.10;39.80;21.40;93559.00;;;;10438582;28;45369;-64
2021/10/21 08:38:59;;;;;;;1.63;0.45;;;21.00;39.90;21.40;93549.00;;;;10437892;28;46382;-66
2021/10/21 08:43:59;;;;;;;2.25;0.52;;;21.10;39.70;21.40;93557.00;;;;10438777;28;45381;-63
2021/10/21 08:49:02;;;;;;;1.98;0.50;;;21.10;39.70;21.40;93568.00;;;;10437402;28;47068;-63
2021/10/21 08:54:04;;;;;;;1.27;0.50;;;21.10;39.50;21.40;93570.00;;;;10420731;28;47215;-62
2021/10/21 08:59:05;;;;;;;2.60;0.70;;;21.10;39.50;21.30;93584.00;;;;10438292;28;45219;-64
2021/10/21 09:09:24;;;;;;;1.55;0.35;;;21.00;39.30;21.40;93597.00;;;;10436881;28;45264;-64
2021/10/21 09:14:38;;;;;;;1.30;0.40;;;21.00;39.30;21.40;93604.00;;;;10426121;28;46173;-63
2021/10/21 09:19:42;;;;;;;5.68;0.40;;;21.00;39.20;21.40;93633.00;;;;10393776;28;47518;-63
2021/10/21 09:24:42;;;;;;;2.28;0.45;;;21.10;39.50;21.50;93615.00;;;;10393537;28;47778;-63
2021/10/21 09:29:53;;;;;;;5.85;0.40;;;21.10;39.70;21.50;93635.00;;;;10393348;28;45378;-62
2021/10/21 09:35:06;;;;;;;2.50;0.40;;;21.20;39.70;21.50;93634.00;;;;10389039;28;46975;-62
2021/10/21 09:40:20;;;;;;;2.60;0.40;;;21.20;39.80;21.50;93654.00;;;;10382327;28;48255;-63
2021/10/21 09:45:43;;;;;;;3.08;0.40;;;21.30;39.80;21.60;93635.00;;;;10368932;28;46029;-63
2021/10/21 09:50:46;;;;;;;2.00;0.30;;;21.30;39.80;21.60;93644.00;;;;10365381;28;45113;-62
2021/10/21 09:55:53;;;;;;;3.10;0.50;;;21.30;40.00;21.60;93641.00;;;;10393144;28;45385;-61
2021/10/21 10:01:17;;;;;;;1.40;0.30;;;21.30;40.20;21.60;93628.00;;;;10366468;28;45218;-61
2021/10/21 10:06:18;;;;;;;1.20;0.40;;;21.30;40.20;21.70;93633.00;;;;10356525;28;46513;-67
2021/10/21 10:11:19;;;;;;;3.95;0.40;;;21.40;40.40;21.70;93634.00;;;;10393233;28;45212;-63
2021/10/21 10:16:22;;;;;;;3.65;0.30;;;21.40;40.70;21.70;93627.00;;;;10375885;28;47801;-63
2021/10/21 10:21:34;;;;;;;1.15;0.20;;;21.30;40.70;21.70;93639.00;;;;10390843;28;45285;-62
2021/10/21 10:26:54;;;;;;;2.33;0.40;;;21.40;40.70;21.70;93631.00;;;;10385501;28;46323;-65
2021/10/21 10:31:56;;;;;;;2.40;0.50;;;21.40;40.90;21.60;93629.00;;;;10388214;28;45562;-65
2021/10/21 10:37:17;;;;;;;2.65;0.57;;;21.30;40.80;21.60;93644.00;;;;10386953;28;46165;-65
2021/10/21 10:42:30;;;;;;;2.10;0.40;;;21.30;40.90;21.60;93644.00;;;;10393578;28;46017;-64
2021/10/21 10:47:50;;;;;;;1.75;0.40;;;21.30;41.10;21.60;93636.00;;;;10391407;28;47548;-65
2021/10/21 10:52:55;;;;;;;2.70;0.40;;;21.30;41.10;21.60;93638.00;;;;10391362;28;45434;-64
2021/10/21 10:58:00;;;;;;;3.08;0.60;;;21.30;41.10;21.60;93629.00;;;;10393164;28;45490;-64
2021/10/21 11:03:02;;;;;;;0.90;0.40;;;21.30;41.10;21.60;93623.00;;;;10391380;28;45300;-65
2021/10/21 11:08:03;;;;;;;2.20;0.43;;;21.30;41.10;21.60;93624.00;;;;10391480;28;45673;-64
2021/10/21 11:13:26;;;;;;;2.05;0.32;;;21.30;41.10;21.60;93635.00;;;;10391725;28;47131;-64
2021/10/21 11:18:38;;;;;;;1.42;0.50;;;21.30;41.20;21.50;93625.00;;;;10392542;28;45343;-65
2021/10/21 11:23:39;;;;;;;0.73;0.32;;;21.30;41.20;21.60;93617.00;;;;10390219;28;48011;-64
2021/10/21 11:28:43;;;;;;;1.80;0.50;;;21.30;41.30;21.60;93640.00;;;;10390870;28;45542;-65
2021/10/21 11:33:48;;;;;;;1.15;0.40;;;21.30;41.20;21.60;93588.00;;;;10407651;28;47558;-65
2021/10/21 11:39:07;;;;;;;2.05;0.40;;;21.30;41.20;21.60;93616.00;;;;10390303;28;48023;-64
2021/10/21 11:44:08;;;;;;;1.42;0.25;;;21.30;41.20;21.50;93596.00;;;;10390611;28;45239;-65
2021/10/21 11:49:09;;;;;;;1.75;0.40;;;21.30;41.20;21.60;93607.00;;;;10390678;28;46517;-64
2021/10/21 11:54:09;;;;;;;1.77;0.60;;;21.30;41.10;21.60;93591.00;;;;10390234;28;45436;-64
2021/10/21 11:59:10;;;;;;;1.88;0.20;;;21.30;41.10;21.60;93596.00;;;;10390364;28;45452;-69
2021/10/21 12:04:11;;;;;;;1.60;0.30;;;21.30;41.20;21.60;93581.00;;;;10390746;28;45400;-64
2021/10/21 12:09:12;;;;;;;3.05;0.40;;;21.30;41.10;21.60;93597.00;;;;10389379;28;47069;-63
2021/10/21 12:14:14;;;;;;;3.72;0.65;;;21.30;40.80;21.60;93579.00;;;;10392100;28;46401;-63
2021/10/21 12:19:21;;;;;;;3.80;0.52;;;21.30;41.00;21.60;93590.00;;;;10396533;28;47010;-64
2021/10/21 12:24:27;;;;;;;1.10;0.35;;;21.30;40.80;21.60;93578.00;;;;10396549;28;46935;-64
2021/10/21 12:29:45;;;;;;;;;;;21.30;40.50;21.60;93580.00;;;;10396753;28;46903;-63
2021/10/21 12:34:47;;;;;;;1.90;0.47;;;21.30;40.50;21.50;93563.00;;;;10396401;28;45309;-64
2021/10/21 12:39:48;;;;;;;1.30;0.38;;;21.30;40.30;21.60;93557.00;;;;10412146;28;46759;-64
2021/10/21 12:45:00;;;;;;;0.93;0.45;;;21.30;40.00;21.50;93567.00;;;;10396144;28;47018;-64
2021/10/21 12:50:08;;;;;;;2.30;0.50;;;21.30;40.20;21.50;93552.00;;;;10420782;28;46917;-64
2021/10/21 12:55:23;;;;;;;1.13;0.22;;;21.30;40.10;21.60;93538.00;;;;10437027;28;46938;-64
2021/10/21 13:00:43;;;;;;;1.50;0.30;;;21.30;39.80;21.60;93541.00;;;;10436840;28;47383;-67
2021/10/21 13:05:49;;;;;;;1.88;0.30;;;21.30;39.50;21.60;93556.00;;;;10436470;28;45372;-62
2021/10/21 13:15:55;;;;;;;2.90;0.55;;;21.30;39.70;21.60;93551.00;;;;10435233;28;45116;-61
2021/10/21 13:20:56;;;;;;;2.03;0.35;;;21.30;39.70;21.60;93534.00;;;;10430456;28;47161;-61
2021/10/21 13:25:58;;;;;;;2.90;0.38;;;21.30;39.70;21.60;93530.00;;;;10433710;28;45458;-63
2021/10/21 13:30:58;;;;;;;7.00;0.50;;;21.30;39.60;21.60;93529.00;;;;10431206;28;47004;-62
2021/10/21 13:35:59;;;;;;;5.03;0.68;;;21.30;39.50;21.50;93520.00;;;;10375553;28;46785;-62
2021/10/21 13:41:00;;;;;;;1.92;0.40;;;21.30;39.40;21.50;93539.00;;;;10386481;28;45472;-63
2021/10/21 13:46:01;;;;;;;1.70;0.38;;;21.30;39.50;21.60;93527.00;;;;10392688;28;48062;-62
2021/10/21 13:51:02;;;;;;;1.00;0.30;;;21.30;39.40;21.50;93527.00;;;;10393193;28;47913;-62
2021/10/21 13:56:06;;;;;;;0.93;0.40;;;21.30;39.50;21.60;93547.00;;;;10358590;28;45234;-62
2021/10/21 14:01:07;;;;;;;1.63;0.35;;;21.30;39.40;21.50;93525.00;;;;10353716;28;46123;-62
2021/10/21 14:06:08;;;;;;;1.30;0.25;;;21.20;39.40;21.50;93522.00;;;;10352763;28;45549;-62
2021/10/21 14:11:09;;;;;;;1.80;0.40;;;21.20;40.10;21.50;93521.00;;;;10351744;28;48093;-62
2021/10/21 14:16:11;;;;;;;3.00;0.47;;;21.20;39.40;21.50;93490.00;;;;10348192;28;45473;-62
2021/10/21 14:21:11;;;;;;;3.30;0.60;;;21.20;39.30;21.40;93491.00;;;;10346833;28;47495;-62
2021/10/21 14:26:14;;;;;;;4.65;0.43;;;21.20;39.40;21.40;93513.00;;;;10351902;28;45383;-62
2021/10/21 14:31:15;;;;;;;4.60;0.75;;;21.20;39.40;21.40;93535.00;;;;10350981;28;45346;-67
2021/10/21 14:36:16;;;;;;;2.90;0.60;;;21.20;39.20;21.50;93534.00;;;;10391324;28;45425;-63
2021/10/21 14:41:17;;;;;;;1.85;0.40;;;21.20;39.10;21.50;93538.00;;;;10389732;28;45574;-66
2021/10/21 14:46:19;;;;;;;4.60;0.57;;;21.20;39.10;21.50;93540.00;;;;10389801;28;45341;-62
2021/10/21 14:51:19;;;;;;;5.40;0.77;;;21.20;39.30;21.40;93535.00;;;;10393448;28;47561;-63
2021/10/21 14:56:20;;;;;;;6.60;0.50;;;21.20;39.20;21.40;93515.00;;;;10387403;28;46710;-63
2021/10/21 15:01:21;;;;;;;2.92;0.35;;;21.20;39.40;21.40;93525.00;;;;10390282;28;45959;-63
2021/10/21 15:27:27;;;;;;;2.33;0.40;;;21.20;39.30;21.40;93519.00;;;;10390850;28;45397;-62
2021/10/21 15:32:30;;;;;;;2.13;0.32;;;21.10;39.20;21.50;93520.00;;;;10389293;28;45325;-66
2021/10/21 15:37:33;;;;;;;5.38;0.50;;;21.10;38.40;21.50;93542.00;;;;10388916;28;47037;-69
2021/10/21 15:42:34;;;;;;;2.50;0.40;;;21.20;38.80;21.50;93540.00;;;;10390706;28;46592;-66
2021/10/21 15:47:40;;;;;;;1.13;0.32;;;21.20;38.60;21.50;93527.00;;;;10391610;28;47441;-67
2021/10/21 16:14:02;;;;;;;1.08;0.30;;;21.30;39.00;21.70;93543.00;;;;10406268;28;45205;-66
2021/10/21 16:19:03;;;;;;;1.02;0.30;;;21.30;38.90;21.70;93545.00;;;;10367584;28;46029;-65
2021/10/21 16:24:09;;;;;;;2.88;0.30;;;21.40;38.90;21.70;93545.00;;;;10388340;28;48714;-65
2021/10/21 16:29:09;;;;;;;0.77;0.10;;;21.30;38.80;21.70;93540.00;;;;10369819;28;46157;-62
2021/10/21 16:34:10;;;;;;;2.92;0.35;;;21.40;38.80;21.70;93546.00;;;;10378101;28;47192;-63
2021/10/21 16:39:11;;;;;;;1.92;0.30;;;21.40;38.80;21.70;93551.00;;;;10371670;28;45301;-64
2021/10/21 16:44:11;;;;;;;2.55;0.30;;;21.40;38.80;21.70;93556.00;;;;10371938;28;46867;-64
2021/10/21 16:49:12;;;;;;;0.98;0.20;;;21.40;38.70;21.70;93569.00;;;;10371868;28;45633;-65
2021/10/21 16:54:13;;;;;;;0.38;0.10;;;21.40;38.70;21.70;93551.00;;;;10408805;28;46758;-65
2021/10/21 16:59:13;;;;;;;0.57;0.32;;;21.40;38.60;21.70;93575.00;;;;10392662;28;47285;-64
2021/10/21 17:04:14;;;;;;;4.45;0.30;;;21.40;38.40;21.70;93565.00;;;;10394492;28;47305;-62
2021/10/21 17:09:15;;;;;;;1.13;0.30;;;21.40;38.50;21.70;93563.00;;;;10393468;28;45470;-64
2021/10/21 17:14:15;;;;;;;0.80;0.20;;;21.40;38.40;21.60;93560.00;;;;10393224;28;48164;-63
2021/10/21 17:19:16;;;;;;;0.88;0.10;;;21.40;38.30;21.60;93561.00;;;;10393340;28;46883;-64
2021/10/21 17:24:17;;;;;;;2.67;0.30;;;21.40;38.30;21.60;93569.00;;;;10392063;28;47211;-65
2021/10/21 17:29:19;;;;;;;0.93;0.30;;;21.40;38.20;21.60;93562.00;;;;10393019;28;45201;-66
2021/10/21 17:34:20;;;;;;;1.00;0.20;;;21.40;38.30;21.70;93572.00;;;;10412552;28;47229;-65
2021/10/21 17:39:21;;;;;;;1.80;0.20;;;21.40;38.20;21.70;93567.00;;;;10393519;28;47874;-65
2021/10/21 17:44:22;;;;;;;1.23;0.40;;;21.40;38.30;21.70;93582.00;;;;10376990;28;47470;-66
2021/10/21 17:49:23;;;;;;;0.93;0.20;;;21.40;38.20;21.70;93584.00;;;;10393027;28;48175;-66
2021/10/21 17:54:23;;;;;;;1.10;0.25;;;21.40;38.30;21.70;93579.00;;;;10392601;28;46593;-66
2021/10/21 17:59:25;;;;;;;0.80;0.20;;;21.40;38.20;21.70;93588.00;;;;10393060;28;47302;-73
2021/10/21 18:04:26;;;;;;;0.28;0.10;;;21.40;38.00;21.70;93584.00;;;;10392755;28;47232;-66
2021/10/21 18:09:27;;;;;;;1.45;0.30;;;21.40;38.10;21.70;93586.00;;;;10375608;28;48104;-67
2021/10/21 18:14:27;;;;;;;1.33;0.30;;;21.40;38.10;21.70;93607.00;;;;10390892;28;45489;-66
2021/10/21 18:19:28;;;;;;;2.03;0.60;;;21.40;38.10;21.70;93610.00;;;;10391587;28;45454;-64
2021/10/21 18:24:29;;;;;;;0.40;0.20;;;21.40;38.00;21.70;93617.00;;;;10391426;28;45431;-67
2021/10/21 18:29:30;;;;;;;0.80;0.25;;;21.50;38.10;21.80;93607.00;;;;10390807;28;46299;-64
2021/10/21 18:34:30;;;;;;;0.57;0.20;;;21.40;38.00;21.80;93612.00;;;;10423373;28;46745;-66
2021/10/21 18:39:33;;;;;;;0.40;0.20;;;21.50;38.00;21.80;93614.00;;;;10433112;28;46295;-64
2021/10/21 18:44:33;;;;;;;1.00;0.25;;;21.40;37.90;21.80;93619.00;;;;10433583;28;46144;-65
2021/10/21 18:49:34;;;;;;;0.52;0.20;;;21.50;38.00;21.80;93607.00;;;;10411285;28;48298;-64
2021/10/21 18:54:35;;;;;;;0.63;0.17;;;21.50;38.00;21.80;93609.00;;;;10390341;28;48160;-65
2021/10/21 18:59:37;;;;;;;1.27;0.35;;;21.50;38.10;21.80;93614.00;;;;10392342;28;45291;-65
2021/10/21 19:04:38;;;;;;;0.75;0.10;;;21.50;38.10;21.80;93626.00;;;;10390922;28;45251;-65
2021/10/21 19:09:40;;;;;;;1.00;0.30;;;21.50;38.10;21.80;93637.00;;;;10372656;28;46460;-65
2021/10/21 19:14:41;;;;;;;1.67;0.22;;;21.50;38.10;21.90;93612.00;;;;10386029;28;47186;-65
2021/10/21 19:19:44;;;;;;;0.45;0.10;;;21.50;38.10;21.90;93629.00;;;;10379825;28;45443;-65
2021/10/21 19:24:45;;;;;;;1.23;0.17;;;21.50;38.10;21.90;93621.00;;;;10370872;28;46289;-64
2021/10/21 19:29:46;;;;;;;0.00;0.00;;;21.50;38.10;21.90;93625.00;;;;10332828;28;46927;-65
2021/10/21 19:34:46;;;;;;;0.70;0.20;;;21.50;38.10;21.90;93636.00;;;;10416504;28;47212;-65
2021/10/21 19:39:48;;;;;;;0.77;0.20;;;21.60;38.20;21.90;93640.00;;;;10431837;28;46833;-64
2021/10/21 19:44:49;;;;;;;0.98;0.20;;;21.60;38.20;21.90;93646.00;;;;10430778;28;48164;-64
2021/10/21 19:49:50;;;;;;;1.88;0.20;;;21.60;38.20;21.90;93637.00;;;;10405057;28;45399;-65
2021/10/21 19:54:51;;;;;;;0.45;0.20;;;21.60;38.20;21.90;93641.00;;;;10387751;28;46609;-64
2021/10/21 19:59:51;;;;;;;0.70;0.20;;;21.50;38.30;21.90;93659.00;;;;10389543;28;47835;-64
2021/10/21 20:04:52;;;;;;;0.65;0.20;;;21.60;38.30;21.90;93648.00;;;;10389581;28;45190;-64
2021/10/21 20:09:56;;;;;;;0.47;0.10;;;21.60;38.30;21.90;93656.00;;;;10388959;28;47087;-64
2021/10/21 20:14:56;;;;;;;0.52;0.13;;;21.50;38.20;21.90;93666.00;;;;10390072;28;45395;-64
2021/10/21 20:20:00;;;;;;;0.30;0.10;;;21.60;38.40;21.80;93676.00;;;;10389383;28;45609;-64
2021/10/21 20:25:01;;;;;;;0.40;0.10;;;21.50;38.30;21.80;93683.00;;;;10387041;28;45436;-64
2021/10/21 20:30:01;;;;;;;0.35;0.10;;;21.50;38.40;21.80;93681.00;;;;10389358;28;45217;-64
2021/10/21 20:35:05;;;;;;;1.30;0.20;;;21.50;38.40;21.80;93669.00;;;;10404015;28;47998;-64
2021/10/21 20:40:10;;;;;;;0.30;0.15;;;21.40;38.30;21.70;93709.00;;;;10436397;28;46960;-64
2021/10/21 20:45:12;;;;;;;0.85;0.22;;;21.40;38.30;21.70;93729.00;;;;10437203;28;45226;-64
2021/10/21 20:50:14;;;;;;;0.82;0.20;;;21.40;38.40;21.70;93722.00;;;;10437908;28;46233;-64
2021/10/21 20:55:15;;;;;;;0.30;0.10;;;21.40;38.40;21.60;93698.00;;;;10436626;28;46648;-64
2021/10/21 21:00:16;;;;;;;0.50;0.13;;;21.30;38.40;21.60;93717.00;;;;10435994;28;48218;-64
2021/10/21 21:05:17;;;;;;;0.52;0.10;;;21.30;38.40;21.60;93716.00;;;;10436307;28;47500;-64
2021/10/21 21:10:18;;;;;;;0.90;0.20;;;21.30;38.50;21.60;93728.00;;;;10435810;28;45562;-64
2021/10/21 21:15:19;;;;;;;0.35;0.10;;;21.30;38.50;21.50;93727.00;;;;10435099;28;46222;-66
2021/10/21 21:20:20;;;;;;;1.15;0.10;;;21.30;38.60;21.50;93714.00;;;;10415582;28;47150;-64
2021/10/21 21:25:21;;;;;;;0.65;0.20;;;21.20;38.50;21.50;93714.00;;;;10415963;28;47184;-64
2021/10/21 21:30:22;;;;;;;0.47;0.20;;;21.20;38.60;21.50;93710.00;;;;10435531;28;47099;-64
2021/10/21 21:35:23;;;;;;;0.63;0.10;;;21.10;38.60;21.50;93731.00;;;;10435510;28;47037;-64
2021/10/21 21:40:24;;;;;;;0.30;0.10;;;21.10;38.60;21.40;93710.00;;;;10418563;28;47108;-64
2021/10/21 21:45:25;;;;;;;0.25;0.10;;;21.10;38.70;21.40;93707.00;;;;10435162;28;47161;-64
2021/10/21 21:50:26;;;;;;;0.13;0.10;;;21.10;38.70;21.40;93713.00;;;;10434672;28;47543;-64
2021/10/21 21:55:27;;;;;;;0.73;0.20;;;21.10;38.70;21.40;93716.00;;;;10434577;28;48057;-65
2021/10/21 22:00:28;;;;;;;0.57;0.20;;;21.10;38.70;21.30;93711.00;;;;10434779;28;46536;-63
2021/10/21 22:05:30;;;;;;;0.43;0.20;;;21.10;38.70;21.30;93737.00;;;;10436509;28;45328;-63
2021/10/21 22:10:31;;;;;;;0.82;0.20;;;21.10;38.80;21.30;93728.00;;;;10434454;28;45418;-64
2021/10/21 22:15:31;;;;;;;0.43;0.10;;;21.00;38.80;21.30;93732.00;;;;10434876;28;45201;-65
2021/10/21 22:20:32;;;;;;;0.63;0.20;;;21.00;38.80;21.30;93734.00;;;;10434852;28;47025;-63
2021/10/21 22:25:33;;;;;;;0.43;0.10;;;21.00;38.80;21.30;93728.00;;;;10433748;28;48315;-65
2021/10/21 22:30:33;;;;;;;0.85;0.20;;;21.00;38.90;21.30;93728.00;;;;10433265;28;47660;-65
2021/10/21 22:35:34;;;;;;;0.52;0.10;;;20.90;38.90;21.20;93739.00;;;;10392986;28;45129;-64
2021/10/21 22:40:35;;;;;;;0.52;0.10;;;20.90;38.90;21.20;93738.00;;;;10392423;28;45682;-64
2021/10/21 22:45:36;;;;;;;0.65;0.20;;;20.90;38.90;21.20;93742.00;;;;10392141;28;45427;-65
2021/10/21 22:50:37;;;;;;;0.35;0.10;;;20.90;39.00;21.20;93734.00;;;;10421863;28;45494;-64
2021/10/21 22:55:38;;;;;;;0.30;0.10;;;20.90;39.00;21.20;93742.00;;;;10433053;28;47748;-65
2021/10/21 23:00:39;;;;;;;0.25;0.10;;;20.90;39.00;21.20;93744.00;;;;10432020;28;47324;-63